Friday, October 24, 2014
12:05 UTC
  |  Log In   |  Register Free
Airport Search:

Lawrence Smith Memorial Airport
(KLRY)

Lawrence Smith Memorial Airport Diagram
No Airport Diagram Available

FAA data valid effective September 18, 2014 - November 13, 2014 (unless otherwise noted).

 
 
 
 
 
 
 
 
 
 
 
 
 
 

Current Aviation Weather for Lawrence Smith Memorial Airport (KLRY)

METAR data is unavailable for LRY. The nearest METAR location is at KLXT (21 nm NW from LRY).

The most recent METAR observation for KLXT was updated at: 1111
METAR Summary (Translated METAR)
KLXT
241053Z AUTO 18004KT 4SM BR CLR 13/12 A3006 RMK AO2 SLP176 T01280122
(21 nm NW from KLRY)
KOJC
241053Z AUTO 20005KT 1 1/4SM BR OVC002 13/13 A3004 RMK AO2 SLP169 T01280128
(23.3 nm NW from KLRY)
TAF
No TAF information found within 50 nm of KLXT
  Airport Weather Conditions for KLRY

Current weather conditions are
not available for LRY


The nearest NOAA weather station
is at LXT, (21 nm NW from LRY)
  
 Current Weather at LXT
55° F
Fog/Mist
South winds at 4.6 mph
LXT NOAA Radar

Pressure: 30.06 in
Humidity: 96%
Wind: South at 4.6 MPH (4 KT)
Dew Point: 54.0°F
Visibility: 4.00 mi


Airport Weather Forecast for KLRY

Translated METAR and TAF for KLXT
Translated METAR for KLXT (1200 UTC 24 October 2014)
found at http://aviationweather.gov/adds/metars/
 
METAR text: KLXT 241153Z AUTO 18004KT 1SM BR OVC002 13/12 A3007 RMK AO2 SLP181 T01280122 10139 20122 55003
Conditions at: KLXT (LEES SUMMIT MUNI, MO, US) observed 1153 UTC 24 October 2014
Temperature: 12.8°C (55°F)
Dewpoint: 12.2°C (54°F) [RH = 96%]
Pressure (altimeter): 30.07 inches Hg (1018.4 mb)
[Sea-level pressure: 1018.1 mb]
Winds: from the S (180 degrees) at 5 MPH (4 knots; 2.1 m/s)
Visibility: 1.00 miles (1.61 km)
Ceiling: 200 feet AGL
Clouds: overcast cloud deck at 200 feet AGL
Weather: BR  (mist)
Translated TAF for KLXT

There is no translated TAF available for this airport

Find All Airport Services Find A Hotel Find A Rental Car Find A Golf Course Find A Restaurant $100 Hamburger



FBO's on the Field
FBO Company Facility Photos Services Transportation Aviation Fuel Prices: Prices include tax
Catering Weather Repair Courtesy Rental Type 100LL JetA JetA+ MOGAS 8087
 
City of Harrisonville

This FBO has not yet been rated
FS: Phillips 66
Last Updated: Oct-23
Login to update fuel prices
SS:
Contact City of HarrisonvilleMore FBO Information
 
Add another FBO Facility Photos Catering Weather Repair Courtesy Rental Type 100LL JetA JetA+ MOGAS 8087
Services Transportation Aviation Fuel Prices: Prices include tax


model-print
model-print
model-print
model-print